sensor_id;sensor_type;location;lat;lon;timestamp;P1;durP1;ratioP1;P2;durP2;ratioP2
24145;SDS011;12308;50.948;4.706;2022-07-29T00:01:20;7.18;;;2.42;;
24145;SDS011;12308;50.948;4.706;2022-07-29T00:03:46;7.40;;;2.00;;
24145;SDS011;12308;50.948;4.706;2022-07-29T00:06:12;8.00;;;2.90;;
24145;SDS011;12308;50.948;4.706;2022-07-29T00:08:39;7.07;;;2.80;;
24145;SDS011;12308;50.948;4.706;2022-07-29T00:11:04;5.68;;;2.83;;
24145;SDS011;12308;50.948;4.706;2022-07-29T00:13:30;9.00;;;2.88;;
24145;SDS011;12308;50.948;4.706;2022-07-29T00:15:56;6.13;;;3.00;;
24145;SDS011;12308;50.948;4.706;2022-07-29T00:18:21;11.07;;;3.60;;
24145;SDS011;12308;50.948;4.706;2022-07-29T00:20:47;9.88;;;2.90;;
24145;SDS011;12308;50.948;4.706;2022-07-29T00:23:13;6.43;;;3.08;;
24145;SDS011;12308;50.948;4.706;2022-07-29T00:25:38;12.55;;;2.90;;
24145;SDS011;12308;50.948;4.706;2022-07-29T00:28:04;12.27;;;3.20;;
24145;SDS011;12308;50.948;4.706;2022-07-29T00:30:30;6.78;;;3.10;;
24145;SDS011;12308;50.948;4.706;2022-07-29T00:32:56;8.32;;;2.90;;
24145;SDS011;12308;50.948;4.706;2022-07-29T00:35:22;9.30;;;3.40;;
24145;SDS011;12308;50.948;4.706;2022-07-29T00:38:06;10.52;;;3.50;;
24145;SDS011;12308;50.948;4.706;2022-07-29T00:40:32;7.97;;;3.25;;
24145;SDS011;12308;50.948;4.706;2022-07-29T00:42:57;9.27;;;3.55;;
24145;SDS011;12308;50.948;4.706;2022-07-29T00:45:23;5.38;;;3.40;;
24145;SDS011;12308;50.948;4.706;2022-07-29T00:47:49;10.95;;;3.33;;
24145;SDS011;12308;50.948;4.706;2022-07-29T00:50:15;12.10;;;3.55;;
24145;SDS011;12308;50.948;4.706;2022-07-29T00:52:42;12.20;;;3.70;;
24145;SDS011;12308;50.948;4.706;2022-07-29T00:55:09;11.55;;;3.30;;
24145;SDS011;12308;50.948;4.706;2022-07-29T00:57:36;16.50;;;4.13;;
24145;SDS011;12308;50.948;4.706;2022-07-29T01:00:06;10.32;;;3.40;;
24145;SDS011;12308;50.948;4.706;2022-07-29T01:02:34;8.80;;;3.17;;
24145;SDS011;12308;50.948;4.706;2022-07-29T01:05:01;5.78;;;2.83;;
24145;SDS011;12308;50.948;4.706;2022-07-29T01:07:27;11.13;;;3.63;;
24145;SDS011;12308;50.948;4.706;2022-07-29T01:09:54;9.00;;;3.38;;
24145;SDS011;12308;50.948;4.706;2022-07-29T01:12:23;8.05;;;3.40;;
24145;SDS011;12308;50.948;4.706;2022-07-29T01:14:50;6.70;;;2.95;;
24145;SDS011;12308;50.948;4.706;2022-07-29T01:17:24;7.43;;;3.08;;
24145;SDS011;12308;50.948;4.706;2022-07-29T01:22:35;9.38;;;3.25;;
24145;SDS011;12308;50.948;4.706;2022-07-29T01:30:40;8.80;;;3.15;;
24145;SDS011;12308;50.948;4.706;2022-07-29T01:33:10;7.75;;;2.85;;
24145;SDS011;12308;50.948;4.706;2022-07-29T01:35:58;9.70;;;3.03;;
24145;SDS011;12308;50.948;4.706;2022-07-29T01:38:30;12.32;;;3.50;;
24145;SDS011;12308;50.948;4.706;2022-07-29T01:41:01;6.88;;;3.25;;
24145;SDS011;12308;50.948;4.706;2022-07-29T01:43:40;10.32;;;3.08;;
24145;SDS011;12308;50.948;4.706;2022-07-29T01:46:11;8.63;;;3.92;;
24145;SDS011;12308;50.948;4.706;2022-07-29T01:48:47;8.80;;;3.17;;
24145;SDS011;12308;50.948;4.706;2022-07-29T01:51:19;10.68;;;3.47;;
24145;SDS011;12308;50.948;4.706;2022-07-29T01:53:53;9.85;;;3.30;;
24145;SDS011;12308;50.948;4.706;2022-07-29T01:56:33;5.45;;;3.20;;
24145;SDS011;12308;50.948;4.706;2022-07-29T01:59:01;9.82;;;3.97;;
24145;SDS011;12308;50.948;4.706;2022-07-29T02:01:29;8.57;;;3.30;;
24145;SDS011;12308;50.948;4.706;2022-07-29T02:03:57;6.25;;;3.78;;
24145;SDS011;12308;50.948;4.706;2022-07-29T02:06:26;6.40;;;3.20;;
24145;SDS011;12308;50.948;4.706;2022-07-29T02:08:55;8.75;;;3.70;;
24145;SDS011;12308;50.948;4.706;2022-07-29T02:11:23;9.95;;;3.22;;
24145;SDS011;12308;50.948;4.706;2022-07-29T02:13:49;7.07;;;3.25;;
24145;SDS011;12308;50.948;4.706;2022-07-29T02:16:18;8.73;;;3.42;;
24145;SDS011;12308;50.948;4.706;2022-07-29T02:18:47;9.32;;;3.75;;
24145;SDS011;12308;50.948;4.706;2022-07-29T02:21:17;7.78;;;3.40;;
24145;SDS011;12308;50.948;4.706;2022-07-29T02:23:47;7.60;;;3.13;;
24145;SDS011;12308;50.948;4.706;2022-07-29T02:26:14;13.93;;;3.58;;
24145;SDS011;12308;50.948;4.706;2022-07-29T02:28:43;11.23;;;3.13;;
24145;SDS011;12308;50.948;4.706;2022-07-29T02:31:09;8.27;;;3.33;;
24145;SDS011;12308;50.948;4.706;2022-07-29T02:33:37;10.45;;;3.53;;
24145;SDS011;12308;50.948;4.706;2022-07-29T02:36:06;10.95;;;3.55;;
24145;SDS011;12308;50.948;4.706;2022-07-29T02:38:32;9.02;;;3.10;;
24145;SDS011;12308;50.948;4.706;2022-07-29T02:41:16;7.22;;;2.90;;
24145;SDS011;12308;50.948;4.706;2022-07-29T02:43:48;7.57;;;4.15;;
24145;SDS011;12308;50.948;4.706;2022-07-29T02:46:36;9.88;;;3.63;;
24145;SDS011;12308;50.948;4.706;2022-07-29T02:49:17;7.70;;;3.90;;
24145;SDS011;12308;50.948;4.706;2022-07-29T02:52:04;6.63;;;4.13;;
24145;SDS011;12308;50.948;4.706;2022-07-29T02:54:40;8.75;;;3.63;;
24145;SDS011;12308;50.948;4.706;2022-07-29T02:57:18;12.88;;;4.15;;
24145;SDS011;12308;50.948;4.706;2022-07-29T02:59:53;11.10;;;3.90;;
24145;SDS011;12308;50.948;4.706;2022-07-29T03:02:23;10.77;;;3.53;;
24145;SDS011;12308;50.948;4.706;2022-07-29T03:04:51;5.28;;;3.55;;
24145;SDS011;12308;50.948;4.706;2022-07-29T03:07:20;7.65;;;3.45;;
24145;SDS011;12308;50.948;4.706;2022-07-29T03:09:46;7.00;;;3.72;;
24145;SDS011;12308;50.948;4.706;2022-07-29T03:12:13;9.35;;;3.60;;
24145;SDS011;12308;50.948;4.706;2022-07-29T03:14:41;8.27;;;3.58;;
24145;SDS011;12308;50.948;4.706;2022-07-29T03:17:08;7.00;;;2.92;;
24145;SDS011;12308;50.948;4.706;2022-07-29T03:19:34;8.63;;;3.67;;
24145;SDS011;12308;50.948;4.706;2022-07-29T03:22:01;6.18;;;3.10;;
24145;SDS011;12308;50.948;4.706;2022-07-29T03:24:28;9.32;;;3.03;;
24145;SDS011;12308;50.948;4.706;2022-07-29T03:26:55;8.18;;;3.42;;
24145;SDS011;12308;50.948;4.706;2022-07-29T03:29:22;9.50;;;3.10;;
24145;SDS011;12308;50.948;4.706;2022-07-29T03:31:47;7.45;;;3.50;;
24145;SDS011;12308;50.948;4.706;2022-07-29T03:34:13;5.28;;;3.38;;
24145;SDS011;12308;50.948;4.706;2022-07-29T03:36:39;8.43;;;3.38;;
24145;SDS011;12308;50.948;4.706;2022-07-29T03:39:04;7.65;;;3.17;;
24145;SDS011;12308;50.948;4.706;2022-07-29T03:41:31;7.75;;;3.42;;
24145;SDS011;12308;50.948;4.706;2022-07-29T03:44:00;9.20;;;3.45;;
24145;SDS011;12308;50.948;4.706;2022-07-29T03:46:27;9.07;;;3.45;;
24145;SDS011;12308;50.948;4.706;2022-07-29T03:48:55;5.03;;;3.40;;
24145;SDS011;12308;50.948;4.706;2022-07-29T03:51:25;11.10;;;4.03;;
24145;SDS011;12308;50.948;4.706;2022-07-29T03:53:51;7.07;;;3.90;;
24145;SDS011;12308;50.948;4.706;2022-07-29T03:56:17;7.10;;;3.60;;
24145;SDS011;12308;50.948;4.706;2022-07-29T03:58:48;10.02;;;3.63;;
24145;SDS011;12308;50.948;4.706;2022-07-29T04:01:15;8.90;;;3.83;;
24145;SDS011;12308;50.948;4.706;2022-07-29T04:03:43;8.88;;;4.18;;
24145;SDS011;12308;50.948;4.706;2022-07-29T04:06:10;6.10;;;3.42;;
24145;SDS011;12308;50.948;4.706;2022-07-29T04:08:36;6.70;;;3.53;;
24145;SDS011;12308;50.948;4.706;2022-07-29T04:11:02;9.07;;;4.30;;
24145;SDS011;12308;50.948;4.706;2022-07-29T04:13:29;7.68;;;3.60;;
24145;SDS011;12308;50.948;4.706;2022-07-29T04:15:55;15.38;;;3.88;;
24145;SDS011;12308;50.948;4.706;2022-07-29T04:18:21;7.60;;;3.90;;
24145;SDS011;12308;50.948;4.706;2022-07-29T04:20:47;7.97;;;4.38;;
24145;SDS011;12308;50.948;4.706;2022-07-29T04:23:13;6.38;;;3.85;;
24145;SDS011;12308;50.948;4.706;2022-07-29T04:25:39;8.68;;;3.92;;
24145;SDS011;12308;50.948;4.706;2022-07-29T04:28:07;6.38;;;3.33;;
24145;SDS011;12308;50.948;4.706;2022-07-29T04:30:34;11.43;;;4.07;;
24145;SDS011;12308;50.948;4.706;2022-07-29T04:33:01;8.35;;;3.50;;
24145;SDS011;12308;50.948;4.706;2022-07-29T04:35:29;8.35;;;4.05;;
24145;SDS011;12308;50.948;4.706;2022-07-29T04:37:55;7.68;;;3.95;;
24145;SDS011;12308;50.948;4.706;2022-07-29T04:40:21;8.23;;;4.22;;
24145;SDS011;12308;50.948;4.706;2022-07-29T04:42:47;10.15;;;3.72;;
24145;SDS011;12308;50.948;4.706;2022-07-29T04:45:13;7.38;;;3.97;;
24145;SDS011;12308;50.948;4.706;2022-07-29T04:47:39;6.07;;;4.07;;
24145;SDS011;12308;50.948;4.706;2022-07-29T04:50:05;11.45;;;4.50;;
24145;SDS011;12308;50.948;4.706;2022-07-29T04:52:32;9.90;;;4.10;;
24145;SDS011;12308;50.948;4.706;2022-07-29T04:54:59;9.38;;;4.50;;
24145;SDS011;12308;50.948;4.706;2022-07-29T04:57:25;7.07;;;4.85;;
24145;SDS011;12308;50.948;4.706;2022-07-29T04:59:51;8.18;;;4.28;;
24145;SDS011;12308;50.948;4.706;2022-07-29T05:02:16;6.05;;;3.63;;
24145;SDS011;12308;50.948;4.706;2022-07-29T05:04:42;10.32;;;4.40;;
24145;SDS011;12308;50.948;4.706;2022-07-29T05:07:08;10.48;;;4.70;;
24145;SDS011;12308;50.948;4.706;2022-07-29T05:09:33;7.93;;;4.32;;
24145;SDS011;12308;50.948;4.706;2022-07-29T05:11:59;10.10;;;4.05;;
24145;SDS011;12308;50.948;4.706;2022-07-29T05:14:25;8.45;;;4.38;;
24145;SDS011;12308;50.948;4.706;2022-07-29T05:16:50;9.60;;;4.70;;
24145;SDS011;12308;50.948;4.706;2022-07-29T05:19:16;10.73;;;4.20;;
24145;SDS011;12308;50.948;4.706;2022-07-29T05:21:42;12.60;;;5.47;;
24145;SDS011;12308;50.948;4.706;2022-07-29T05:24:09;8.63;;;4.28;;
24145;SDS011;12308;50.948;4.706;2022-07-29T05:26:35;13.35;;;4.80;;
24145;SDS011;12308;50.948;4.706;2022-07-29T05:29:01;14.45;;;5.18;;
24145;SDS011;12308;50.948;4.706;2022-07-29T05:31:26;13.63;;;5.25;;
24145;SDS011;12308;50.948;4.706;2022-07-29T05:33:52;7.18;;;5.40;;
24145;SDS011;12308;50.948;4.706;2022-07-29T05:36:18;7.30;;;4.60;;
24145;SDS011;12308;50.948;4.706;2022-07-29T05:38:44;9.55;;;5.00;;
24145;SDS011;12308;50.948;4.706;2022-07-29T05:41:09;10.45;;;5.18;;
24145;SDS011;12308;50.948;4.706;2022-07-29T05:43:35;8.27;;;4.72;;
24145;SDS011;12308;50.948;4.706;2022-07-29T05:46:01;9.82;;;4.65;;
24145;SDS011;12308;50.948;4.706;2022-07-29T05:48:26;11.50;;;5.32;;
24145;SDS011;12308;50.948;4.706;2022-07-29T05:50:52;8.95;;;5.55;;
24145;SDS011;12308;50.948;4.706;2022-07-29T05:53:18;12.90;;;6.00;;
24145;SDS011;12308;50.948;4.706;2022-07-29T05:55:44;8.63;;;5.00;;
24145;SDS011;12308;50.948;4.706;2022-07-29T05:58:09;9.27;;;5.10;;
24145;SDS011;12308;50.948;4.706;2022-07-29T06:00:35;9.07;;;5.32;;
24145;SDS011;12308;50.948;4.706;2022-07-29T06:03:01;7.95;;;5.28;;
24145;SDS011;12308;50.948;4.706;2022-07-29T06:05:26;12.43;;;5.88;;
24145;SDS011;12308;50.948;4.706;2022-07-29T06:07:52;14.40;;;6.00;;
24145;SDS011;12308;50.948;4.706;2022-07-29T06:10:18;13.25;;;6.07;;
24145;SDS011;12308;50.948;4.706;2022-07-29T06:12:44;11.23;;;5.35;;
24145;SDS011;12308;50.948;4.706;2022-07-29T06:15:09;12.98;;;6.20;;
24145;SDS011;12308;50.948;4.706;2022-07-29T06:17:35;9.77;;;5.70;;
24145;SDS011;12308;50.948;4.706;2022-07-29T06:20:02;13.88;;;6.65;;
24145;SDS011;12308;50.948;4.706;2022-07-29T06:22:28;13.60;;;6.65;;
24145;SDS011;12308;50.948;4.706;2022-07-29T06:24:54;11.32;;;6.07;;
24145;SDS011;12308;50.948;4.706;2022-07-29T06:27:20;12.13;;;6.15;;
24145;SDS011;12308;50.948;4.706;2022-07-29T06:29:46;9.55;;;6.30;;
24145;SDS011;12308;50.948;4.706;2022-07-29T06:32:11;11.45;;;6.43;;
24145;SDS011;12308;50.948;4.706;2022-07-29T06:34:37;10.35;;;6.35;;
24145;SDS011;12308;50.948;4.706;2022-07-29T06:37:06;12.57;;;6.18;;
24145;SDS011;12308;50.948;4.706;2022-07-29T06:39:35;9.32;;;6.55;;
24145;SDS011;12308;50.948;4.706;2022-07-29T06:42:02;9.32;;;6.35;;
24145;SDS011;12308;50.948;4.706;2022-07-29T06:44:29;11.00;;;6.75;;
24145;SDS011;12308;50.948;4.706;2022-07-29T06:46:56;10.35;;;6.57;;
24145;SDS011;12308;50.948;4.706;2022-07-29T06:49:21;12.93;;;6.63;;
24145;SDS011;12308;50.948;4.706;2022-07-29T06:51:49;9.43;;;6.45;;
24145;SDS011;12308;50.948;4.706;2022-07-29T06:54:14;11.38;;;7.07;;
24145;SDS011;12308;50.948;4.706;2022-07-29T06:56:40;12.98;;;6.55;;
24145;SDS011;12308;50.948;4.706;2022-07-29T06:59:07;14.90;;;7.22;;
24145;SDS011;12308;50.948;4.706;2022-07-29T07:01:34;9.23;;;6.55;;
24145;SDS011;12308;50.948;4.706;2022-07-29T07:04:01;9.57;;;7.13;;
24145;SDS011;12308;50.948;4.706;2022-07-29T07:06:27;15.38;;;6.53;;
24145;SDS011;12308;50.948;4.706;2022-07-29T07:08:53;10.68;;;6.90;;
24145;SDS011;12308;50.948;4.706;2022-07-29T07:11:19;11.73;;;6.53;;
24145;SDS011;12308;50.948;4.706;2022-07-29T07:13:44;12.70;;;6.70;;
24145;SDS011;12308;50.948;4.706;2022-07-29T07:16:10;11.63;;;6.65;;
24145;SDS011;12308;50.948;4.706;2022-07-29T07:18:36;12.45;;;6.78;;
24145;SDS011;12308;50.948;4.706;2022-07-29T07:21:01;10.15;;;6.80;;
24145;SDS011;12308;50.948;4.706;2022-07-29T07:23:27;13.23;;;7.30;;
24145;SDS011;12308;50.948;4.706;2022-07-29T07:25:53;11.50;;;6.90;;
24145;SDS011;12308;50.948;4.706;2022-07-29T07:28:18;11.43;;;6.53;;
24145;SDS011;12308;50.948;4.706;2022-07-29T07:30:44;12.60;;;6.65;;
24145;SDS011;12308;50.948;4.706;2022-07-29T07:33:10;11.18;;;6.40;;
24145;SDS011;12308;50.948;4.706;2022-07-29T07:35:36;14.95;;;6.43;;
24145;SDS011;12308;50.948;4.706;2022-07-29T07:38:02;10.98;;;6.57;;
24145;SDS011;12308;50.948;4.706;2022-07-29T07:40:28;12.43;;;6.82;;
24145;SDS011;12308;50.948;4.706;2022-07-29T07:42:53;7.93;;;6.32;;
24145;SDS011;12308;50.948;4.706;2022-07-29T07:45:19;12.45;;;6.30;;
24145;SDS011;12308;50.948;4.706;2022-07-29T07:47:45;9.43;;;6.28;;
24145;SDS011;12308;50.948;4.706;2022-07-29T07:50:11;9.10;;;6.25;;
24145;SDS011;12308;50.948;4.706;2022-07-29T07:52:55;9.60;;;6.20;;
24145;SDS011;12308;50.948;4.706;2022-07-29T07:55:24;7.97;;;6.25;;
24145;SDS011;12308;50.948;4.706;2022-07-29T07:57:51;12.73;;;6.97;;
24145;SDS011;12308;50.948;4.706;2022-07-29T08:00:17;10.13;;;6.57;;
24145;SDS011;12308;50.948;4.706;2022-07-29T08:02:43;11.10;;;6.90;;
24145;SDS011;12308;50.948;4.706;2022-07-29T08:05:10;12.73;;;7.28;;
24145;SDS011;12308;50.948;4.706;2022-07-29T08:07:38;14.40;;;7.00;;
24145;SDS011;12308;50.948;4.706;2022-07-29T08:10:04;10.27;;;6.88;;
24145;SDS011;12308;50.948;4.706;2022-07-29T08:12:30;14.65;;;6.50;;
24145;SDS011;12308;50.948;4.706;2022-07-29T08:14:56;14.38;;;6.68;;
24145;SDS011;12308;50.948;4.706;2022-07-29T08:17:21;11.50;;;7.35;;
24145;SDS011;12308;50.948;4.706;2022-07-29T08:19:47;13.13;;;6.50;;
24145;SDS011;12308;50.948;4.706;2022-07-29T08:22:13;11.32;;;6.57;;
24145;SDS011;12308;50.948;4.706;2022-07-29T08:24:39;12.98;;;6.03;;
24145;SDS011;12308;50.948;4.706;2022-07-29T08:27:08;11.43;;;6.07;;
24145;SDS011;12308;50.948;4.706;2022-07-29T08:29:37;10.43;;;6.15;;
24145;SDS011;12308;50.948;4.706;2022-07-29T08:32:04;12.02;;;6.32;;
24145;SDS011;12308;50.948;4.706;2022-07-29T08:34:30;13.07;;;5.20;;
24145;SDS011;12308;50.948;4.706;2022-07-29T08:36:57;10.52;;;5.82;;
24145;SDS011;12308;50.948;4.706;2022-07-29T08:39:23;8.18;;;5.85;;
24145;SDS011;12308;50.948;4.706;2022-07-29T08:41:50;7.95;;;5.03;;
24145;SDS011;12308;50.948;4.706;2022-07-29T08:44:17;9.93;;;5.15;;
24145;SDS011;12308;50.948;4.706;2022-07-29T08:46:43;9.52;;;5.40;;
24145;SDS011;12308;50.948;4.706;2022-07-29T08:49:09;13.85;;;6.65;;
24145;SDS011;12308;50.948;4.706;2022-07-29T08:51:35;33.40;;;6.18;;
24145;SDS011;12308;50.948;4.706;2022-07-29T08:54:03;7.90;;;5.68;;
24145;SDS011;12308;50.948;4.706;2022-07-29T08:56:30;10.10;;;5.22;;
24145;SDS011;12308;50.948;4.706;2022-07-29T08:58:56;6.63;;;5.10;;
24145;SDS011;12308;50.948;4.706;2022-07-29T09:01:25;13.55;;;4.57;;
24145;SDS011;12308;50.948;4.706;2022-07-29T09:03:55;9.55;;;4.55;;
24145;SDS011;12308;50.948;4.706;2022-07-29T09:06:21;9.55;;;4.90;;
24145;SDS011;12308;50.948;4.706;2022-07-29T09:08:52;8.07;;;4.63;;
24145;SDS011;12308;50.948;4.706;2022-07-29T09:11:19;10.38;;;4.60;;
24145;SDS011;12308;50.948;4.706;2022-07-29T09:13:45;9.05;;;4.38;;
24145;SDS011;12308;50.948;4.706;2022-07-29T09:16:11;7.13;;;4.55;;
24145;SDS011;12308;50.948;4.706;2022-07-29T09:18:38;8.98;;;4.13;;
24145;SDS011;12308;50.948;4.706;2022-07-29T09:21:07;8.50;;;4.55;;
24145;SDS011;12308;50.948;4.706;2022-07-29T09:26:30;8.50;;;3.60;;
24145;SDS011;12308;50.948;4.706;2022-07-29T09:28:57;7.18;;;4.00;;
24145;SDS011;12308;50.948;4.706;2022-07-29T09:31:27;7.65;;;4.30;;
24145;SDS011;12308;50.948;4.706;2022-07-29T09:34:00;11.13;;;4.20;;
24145;SDS011;12308;50.948;4.706;2022-07-29T09:36:26;9.30;;;4.03;;
24145;SDS011;12308;50.948;4.706;2022-07-29T09:39:01;8.98;;;3.65;;
24145;SDS011;12308;50.948;4.706;2022-07-29T09:41:28;9.82;;;3.47;;
24145;SDS011;12308;50.948;4.706;2022-07-29T09:43:55;5.35;;;2.83;;
24145;SDS011;12308;50.948;4.706;2022-07-29T09:46:21;5.65;;;3.20;;
24145;SDS011;12308;50.948;4.706;2022-07-29T09:49:10;8.25;;;3.15;;
24145;SDS011;12308;50.948;4.706;2022-07-29T09:51:35;9.80;;;3.03;;
24145;SDS011;12308;50.948;4.706;2022-07-29T09:54:02;7.10;;;2.88;;
24145;SDS011;12308;50.948;4.706;2022-07-29T09:56:51;4.30;;;2.63;;
24145;SDS011;12308;50.948;4.706;2022-07-29T09:59:17;6.38;;;2.85;;
24145;SDS011;12308;50.948;4.706;2022-07-29T10:01:45;5.47;;;2.65;;
24145;SDS011;12308;50.948;4.706;2022-07-29T10:04:11;5.32;;;2.90;;
24145;SDS011;12308;50.948;4.706;2022-07-29T10:06:54;6.13;;;2.58;;
24145;SDS011;12308;50.948;4.706;2022-07-29T10:09:25;4.05;;;2.72;;
24145;SDS011;12308;50.948;4.706;2022-07-29T10:12:07;5.18;;;2.97;;
24145;SDS011;12308;50.948;4.706;2022-07-29T10:14:36;9.05;;;3.40;;
24145;SDS011;12308;50.948;4.706;2022-07-29T10:17:04;6.65;;;2.70;;
24145;SDS011;12308;50.948;4.706;2022-07-29T10:19:31;5.65;;;2.80;;
24145;SDS011;12308;50.948;4.706;2022-07-29T10:21:58;4.85;;;2.53;;
24145;SDS011;12308;50.948;4.706;2022-07-29T10:24:28;6.40;;;2.95;;
24145;SDS011;12308;50.948;4.706;2022-07-29T10:26:55;11.33;;;2.90;;
24145;SDS011;12308;50.948;4.706;2022-07-29T10:29:22;5.82;;;2.80;;
24145;SDS011;12308;50.948;4.706;2022-07-29T10:31:50;6.45;;;3.20;;
24145;SDS011;12308;50.948;4.706;2022-07-29T10:34:34;12.32;;;3.13;;
24145;SDS011;12308;50.948;4.706;2022-07-29T10:43:28;5.82;;;2.80;;
24145;SDS011;12308;50.948;4.706;2022-07-29T10:45:58;5.55;;;2.60;;
24145;SDS011;12308;50.948;4.706;2022-07-29T10:48:25;6.03;;;2.60;;
24145;SDS011;12308;50.948;4.706;2022-07-29T10:50:52;40.90;;;4.82;;
24145;SDS011;12308;50.948;4.706;2022-07-29T10:53:19;8.20;;;3.17;;
24145;SDS011;12308;50.948;4.706;2022-07-29T10:55:46;4.75;;;3.30;;
24145;SDS011;12308;50.948;4.706;2022-07-29T10:58:14;4.65;;;3.08;;
24145;SDS011;12308;50.948;4.706;2022-07-29T11:00:51;6.50;;;3.65;;
24145;SDS011;12308;50.948;4.706;2022-07-29T11:06:05;7.53;;;3.60;;
24145;SDS011;12308;50.948;4.706;2022-07-29T11:08:31;6.38;;;3.17;;
24145;SDS011;12308;50.948;4.706;2022-07-29T11:13:45;11.43;;;3.22;;
24145;SDS011;12308;50.948;4.706;2022-07-29T11:16:15;11.57;;;3.40;;
24145;SDS011;12308;50.948;4.706;2022-07-29T11:21:36;4.68;;;3.20;;
24145;SDS011;12308;50.948;4.706;2022-07-29T11:26:42;5.25;;;3.20;;
24145;SDS011;12308;50.948;4.706;2022-07-29T11:31:50;10.48;;;3.42;;
24145;SDS011;12308;50.948;4.706;2022-07-29T11:34:26;6.68;;;3.42;;
24145;SDS011;12308;50.948;4.706;2022-07-29T11:39:37;6.05;;;2.90;;
24145;SDS011;12308;50.948;4.706;2022-07-29T11:45:00;10.68;;;3.20;;
24145;SDS011;12308;50.948;4.706;2022-07-29T11:47:26;5.68;;;2.90;;
24145;SDS011;12308;50.948;4.706;2022-07-29T11:49:54;10.07;;;2.90;;
24145;SDS011;12308;50.948;4.706;2022-07-29T11:52:22;12.43;;;3.50;;
24145;SDS011;12308;50.948;4.706;2022-07-29T11:54:48;15.27;;;3.22;;
24145;SDS011;12308;50.948;4.706;2022-07-29T11:57:16;8.07;;;3.17;;
24145;SDS011;12308;50.948;4.706;2022-07-29T11:59:43;8.95;;;3.67;;
24145;SDS011;12308;50.948;4.706;2022-07-29T12:02:10;7.63;;;3.15;;
24145;SDS011;12308;50.948;4.706;2022-07-29T12:07:18;6.03;;;3.20;;
24145;SDS011;12308;50.948;4.706;2022-07-29T12:09:58;6.35;;;2.72;;
24145;SDS011;12308;50.948;4.706;2022-07-29T12:12:24;8.75;;;2.90;;
24145;SDS011;12308;50.948;4.706;2022-07-29T12:14:50;10.80;;;3.00;;
24145;SDS011;12308;50.948;4.706;2022-07-29T12:19:56;6.05;;;2.38;;
24145;SDS011;12308;50.948;4.706;2022-07-29T12:25:09;8.57;;;2.97;;
24145;SDS011;12308;50.948;4.706;2022-07-29T12:27:36;6.57;;;2.92;;
24145;SDS011;12308;50.948;4.706;2022-07-29T12:30:15;8.00;;;3.00;;
24145;SDS011;12308;50.948;4.706;2022-07-29T12:32:45;6.00;;;2.90;;
24145;SDS011;12308;50.948;4.706;2022-07-29T12:37:40;6.93;;;3.25;;
24145;SDS011;12308;50.948;4.706;2022-07-29T12:40:09;10.65;;;2.92;;
24145;SDS011;12308;50.948;4.706;2022-07-29T12:42:36;4.35;;;2.58;;
24145;SDS011;12308;50.948;4.706;2022-07-29T12:45:02;5.78;;;3.00;;
24145;SDS011;12308;50.948;4.706;2022-07-29T12:47:29;8.55;;;3.00;;
24145;SDS011;12308;50.948;4.706;2022-07-29T12:50:11;7.22;;;2.90;;
24145;SDS011;12308;50.948;4.706;2022-07-29T12:52:43;9.02;;;2.90;;
24145;SDS011;12308;50.948;4.706;2022-07-29T12:55:12;9.43;;;2.78;;
24145;SDS011;12308;50.948;4.706;2022-07-29T12:57:48;8.98;;;3.22;;
24145;SDS011;12308;50.948;4.706;2022-07-29T13:00:22;6.13;;;2.70;;
24145;SDS011;12308;50.948;4.706;2022-07-29T13:02:59;10.55;;;2.70;;
24145;SDS011;12308;50.948;4.706;2022-07-29T13:05:44;8.15;;;2.80;;
24145;SDS011;12308;50.948;4.706;2022-07-29T13:08:14;9.60;;;2.85;;
24145;SDS011;12308;50.948;4.706;2022-07-29T13:10:41;8.50;;;3.30;;
24145;SDS011;12308;50.948;4.706;2022-07-29T13:13:08;8.60;;;3.42;;
24145;SDS011;12308;50.948;4.706;2022-07-29T13:15:36;6.35;;;3.28;;
24145;SDS011;12308;50.948;4.706;2022-07-29T13:18:03;5.93;;;3.08;;
24145;SDS011;12308;50.948;4.706;2022-07-29T13:20:29;4.97;;;2.85;;
24145;SDS011;12308;50.948;4.706;2022-07-29T13:22:56;7.03;;;3.15;;
24145;SDS011;12308;50.948;4.706;2022-07-29T13:25:24;6.15;;;3.15;;
24145;SDS011;12308;50.948;4.706;2022-07-29T13:27:57;11.27;;;2.83;;
24145;SDS011;12308;50.948;4.706;2022-07-29T13:30:24;6.88;;;3.17;;
24145;SDS011;12308;50.948;4.706;2022-07-29T13:32:50;8.27;;;3.42;;
24145;SDS011;12308;50.948;4.706;2022-07-29T13:35:17;7.00;;;2.95;;
24145;SDS011;12308;50.948;4.706;2022-07-29T13:37:44;6.57;;;3.00;;
24145;SDS011;12308;50.948;4.706;2022-07-29T13:40:10;10.73;;;3.47;;
24145;SDS011;12308;50.948;4.706;2022-07-29T13:42:36;8.18;;;3.28;;
24145;SDS011;12308;50.948;4.706;2022-07-29T13:45:03;8.18;;;3.33;;
24145;SDS011;12308;50.948;4.706;2022-07-29T13:47:31;6.20;;;3.80;;
24145;SDS011;12308;50.948;4.706;2022-07-29T13:49:57;7.85;;;3.28;;
24145;SDS011;12308;50.948;4.706;2022-07-29T13:52:22;8.35;;;3.40;;
24145;SDS011;12308;50.948;4.706;2022-07-29T13:54:48;5.10;;;3.47;;
24145;SDS011;12308;50.948;4.706;2022-07-29T13:57:14;5.07;;;3.30;;
24145;SDS011;12308;50.948;4.706;2022-07-29T13:59:40;6.35;;;3.22;;
24145;SDS011;12308;50.948;4.706;2022-07-29T14:02:07;9.13;;;3.60;;
24145;SDS011;12308;50.948;4.706;2022-07-29T14:04:33;5.57;;;3.25;;
24145;SDS011;12308;50.948;4.706;2022-07-29T14:06:59;5.90;;;3.50;;
24145;SDS011;12308;50.948;4.706;2022-07-29T14:09:25;10.77;;;3.50;;
24145;SDS011;12308;50.948;4.706;2022-07-29T14:11:51;11.07;;;3.58;;
24145;SDS011;12308;50.948;4.706;2022-07-29T14:14:17;9.57;;;4.03;;
24145;SDS011;12308;50.948;4.706;2022-07-29T14:16:44;13.20;;;4.68;;
24145;SDS011;12308;50.948;4.706;2022-07-29T14:19:09;6.00;;;3.90;;
24145;SDS011;12308;50.948;4.706;2022-07-29T14:21:36;9.88;;;4.95;;
24145;SDS011;12308;50.948;4.706;2022-07-29T14:24:02;11.80;;;5.80;;
24145;SDS011;12308;50.948;4.706;2022-07-29T14:26:28;8.52;;;4.90;;
24145;SDS011;12308;50.948;4.706;2022-07-29T14:28:54;7.05;;;4.60;;
24145;SDS011;12308;50.948;4.706;2022-07-29T14:31:19;13.55;;;5.72;;
24145;SDS011;12308;50.948;4.706;2022-07-29T14:33:45;11.48;;;5.20;;
24145;SDS011;12308;50.948;4.706;2022-07-29T14:36:11;13.10;;;5.03;;
24145;SDS011;12308;50.948;4.706;2022-07-29T14:38:37;11.40;;;5.57;;
24145;SDS011;12308;50.948;4.706;2022-07-29T14:41:03;14.27;;;5.70;;
24145;SDS011;12308;50.948;4.706;2022-07-29T14:43:29;8.32;;;5.28;;
24145;SDS011;12308;50.948;4.706;2022-07-29T14:45:55;12.82;;;5.70;;
24145;SDS011;12308;50.948;4.706;2022-07-29T14:48:21;8.00;;;5.53;;
24145;SDS011;12308;50.948;4.706;2022-07-29T14:50:46;10.38;;;5.78;;
24145;SDS011;12308;50.948;4.706;2022-07-29T14:53:12;7.60;;;5.10;;
24145;SDS011;12308;50.948;4.706;2022-07-29T14:55:38;10.05;;;4.18;;
24145;SDS011;12308;50.948;4.706;2022-07-29T14:58:05;5.28;;;3.67;;
24145;SDS011;12308;50.948;4.706;2022-07-29T15:00:31;9.40;;;4.63;;
24145;SDS011;12308;50.948;4.706;2022-07-29T15:02:58;14.85;;;6.05;;
24145;SDS011;12308;50.948;4.706;2022-07-29T15:05:25;13.35;;;5.38;;
24145;SDS011;12308;50.948;4.706;2022-07-29T15:07:51;9.68;;;4.45;;
24145;SDS011;12308;50.948;4.706;2022-07-29T15:10:17;12.07;;;5.80;;
24145;SDS011;12308;50.948;4.706;2022-07-29T15:12:42;8.02;;;4.65;;
24145;SDS011;12308;50.948;4.706;2022-07-29T15:15:08;9.98;;;4.57;;
24145;SDS011;12308;50.948;4.706;2022-07-29T15:17:34;9.73;;;4.90;;
24145;SDS011;12308;50.948;4.706;2022-07-29T15:20:01;11.32;;;4.03;;
24145;SDS011;12308;50.948;4.706;2022-07-29T15:22:27;6.78;;;3.70;;
24145;SDS011;12308;50.948;4.706;2022-07-29T15:24:52;6.85;;;3.78;;
24145;SDS011;12308;50.948;4.706;2022-07-29T15:27:18;7.93;;;3.70;;
24145;SDS011;12308;50.948;4.706;2022-07-29T15:29:43;7.22;;;3.85;;
24145;SDS011;12308;50.948;4.706;2022-07-29T15:32:10;12.20;;;3.85;;
24145;SDS011;12308;50.948;4.706;2022-07-29T15:34:36;4.93;;;3.83;;